sensor_id;sensor_type;location;lat;lon;timestamp;temperature;humidity
31661;DHT22;18267;52.234;7.444;2023-06-10T00:01:53;21.00;96.60
31661;DHT22;18267;52.234;7.444;2023-06-10T00:04:25;21.00;96.70
31661;DHT22;18267;52.234;7.444;2023-06-10T00:06:51;21.00;96.80
31661;DHT22;18267;52.234;7.444;2023-06-10T00:09:17;21.00;96.80
31661;DHT22;18267;52.234;7.444;2023-06-10T00:11:44;21.00;96.90
31661;DHT22;18267;52.234;7.444;2023-06-10T00:14:10;21.00;97.00
31661;DHT22;18267;52.234;7.444;2023-06-10T00:16:36;20.90;97.20
31661;DHT22;18267;52.234;7.444;2023-06-10T00:19:02;20.80;97.40
31661;DHT22;18267;52.234;7.444;2023-06-10T00:21:29;20.70;97.60
31661;DHT22;18267;52.234;7.444;2023-06-10T00:23:55;20.70;97.50
31661;DHT22;18267;52.234;7.444;2023-06-10T00:26:22;20.70;97.50
31661;DHT22;18267;52.234;7.444;2023-06-10T00:28:48;20.80;97.60
31661;DHT22;18267;52.234;7.444;2023-06-10T00:31:13;20.70;97.60
31661;DHT22;18267;52.234;7.444;2023-06-10T00:33:39;20.60;97.70
31661;DHT22;18267;52.234;7.444;2023-06-10T00:36:05;20.70;97.80
31661;DHT22;18267;52.234;7.444;2023-06-10T00:38:30;20.70;98.20
31661;DHT22;18267;52.234;7.444;2023-06-10T00:40:57;20.60;98.10
31661;DHT22;18267;52.234;7.444;2023-06-10T00:43:22;20.50;98.50
31661;DHT22;18267;52.234;7.444;2023-06-10T00:45:48;20.40;98.50
31661;DHT22;18267;52.234;7.444;2023-06-10T00:48:14;20.40;98.70
31661;DHT22;18267;52.234;7.444;2023-06-10T00:50:39;20.40;98.80
31661;DHT22;18267;52.234;7.444;2023-06-10T00:53:05;20.40;98.80
31661;DHT22;18267;52.234;7.444;2023-06-10T00:55:32;20.40;98.80
31661;DHT22;18267;52.234;7.444;2023-06-10T00:57:58;20.40;98.90
31661;DHT22;18267;52.234;7.444;2023-06-10T01:00:24;20.30;99.00
31661;DHT22;18267;52.234;7.444;2023-06-10T01:02:51;20.30;99.00
31661;DHT22;18267;52.234;7.444;2023-06-10T01:05:19;20.20;99.10
31661;DHT22;18267;52.234;7.444;2023-06-10T01:07:58;20.30;99.20
31661;DHT22;18267;52.234;7.444;2023-06-10T01:10:33;20.20;99.40
31661;DHT22;18267;52.234;7.444;2023-06-10T01:13:01;20.10;99.50
31661;DHT22;18267;52.234;7.444;2023-06-10T01:15:34;20.10;99.60
31661;DHT22;18267;52.234;7.444;2023-06-10T01:18:02;20.20;99.70
31661;DHT22;18267;52.234;7.444;2023-06-10T01:20:29;20.20;99.60
31661;DHT22;18267;52.234;7.444;2023-06-10T01:22:55;20.20;99.70
31661;DHT22;18267;52.234;7.444;2023-06-10T01:25:22;20.20;99.80
31661;DHT22;18267;52.234;7.444;2023-06-10T01:30:28;20.00;99.90
31661;DHT22;18267;52.234;7.444;2023-06-10T01:32:55;20.00;99.90
31661;DHT22;18267;52.234;7.444;2023-06-10T01:35:24;19.80;99.90
31661;DHT22;18267;52.234;7.444;2023-06-10T01:37:53;19.90;99.90
31661;DHT22;18267;52.234;7.444;2023-06-10T01:40:19;19.80;99.90
31661;DHT22;18267;52.234;7.444;2023-06-10T01:42:45;19.70;99.90
31661;DHT22;18267;52.234;7.444;2023-06-10T01:45:11;19.80;99.90
31661;DHT22;18267;52.234;7.444;2023-06-10T01:47:36;19.80;99.90
31661;DHT22;18267;52.234;7.444;2023-06-10T01:50:02;19.70;99.90
31661;DHT22;18267;52.234;7.444;2023-06-10T01:52:28;19.60;99.90
31661;DHT22;18267;52.234;7.444;2023-06-10T01:54:53;19.50;99.90
31661;DHT22;18267;52.234;7.444;2023-06-10T01:57:19;19.50;99.90
31661;DHT22;18267;52.234;7.444;2023-06-10T01:59:44;19.50;99.90
31661;DHT22;18267;52.234;7.444;2023-06-10T02:02:11;19.50;99.90
31661;DHT22;18267;52.234;7.444;2023-06-10T02:04:37;19.50;99.90
31661;DHT22;18267;52.234;7.444;2023-06-10T02:07:02;19.50;99.90
31661;DHT22;18267;52.234;7.444;2023-06-10T02:09:31;19.50;99.90
31661;DHT22;18267;52.234;7.444;2023-06-10T02:12:00;19.50;99.90
31661;DHT22;18267;52.234;7.444;2023-06-10T02:14:26;19.50;99.90
31661;DHT22;18267;52.234;7.444;2023-06-10T02:16:51;19.50;99.90
31661;DHT22;18267;52.234;7.444;2023-06-10T02:19:21;19.50;99.90
31661;DHT22;18267;52.234;7.444;2023-06-10T02:21:47;19.50;99.90
31661;DHT22;18267;52.234;7.444;2023-06-10T02:24:13;19.50;99.90
31661;DHT22;18267;52.234;7.444;2023-06-10T02:26:38;19.40;99.90
31661;DHT22;18267;52.234;7.444;2023-06-10T02:29:05;19.40;99.90
31661;DHT22;18267;52.234;7.444;2023-06-10T02:31:31;19.20;99.90
31661;DHT22;18267;52.234;7.444;2023-06-10T02:33:56;19.20;99.90
31661;DHT22;18267;52.234;7.444;2023-06-10T02:36:22;19.20;99.90
31661;DHT22;18267;52.234;7.444;2023-06-10T02:38:49;19.30;99.90
31661;DHT22;18267;52.234;7.444;2023-06-10T02:41:15;19.30;99.90
31661;DHT22;18267;52.234;7.444;2023-06-10T02:43:40;19.20;99.90
31661;DHT22;18267;52.234;7.444;2023-06-10T02:46:06;19.30;99.90
31661;DHT22;18267;52.234;7.444;2023-06-10T02:48:34;19.20;99.90
31661;DHT22;18267;52.234;7.444;2023-06-10T02:51:05;19.20;99.90
31661;DHT22;18267;52.234;7.444;2023-06-10T02:53:31;19.20;99.90
31661;DHT22;18267;52.234;7.444;2023-06-10T02:55:56;19.10;99.90
31661;DHT22;18267;52.234;7.444;2023-06-10T02:58:22;19.10;99.90
31661;DHT22;18267;52.234;7.444;2023-06-10T03:00:47;18.90;99.90
31661;DHT22;18267;52.234;7.444;2023-06-10T03:03:13;18.90;99.90
31661;DHT22;18267;52.234;7.444;2023-06-10T03:05:38;18.90;99.90
31661;DHT22;18267;52.234;7.444;2023-06-10T03:08:05;18.80;99.90
31661;DHT22;18267;52.234;7.444;2023-06-10T03:10:31;18.60;99.90
31661;DHT22;18267;52.234;7.444;2023-06-10T03:12:58;18.50;99.90
31661;DHT22;18267;52.234;7.444;2023-06-10T03:15:24;18.50;99.90
31661;DHT22;18267;52.234;7.444;2023-06-10T03:17:50;18.30;99.90
31661;DHT22;18267;52.234;7.444;2023-06-10T03:20:15;18.30;99.90
31661;DHT22;18267;52.234;7.444;2023-06-10T03:22:42;18.40;99.90
31661;DHT22;18267;52.234;7.444;2023-06-10T03:25:08;18.40;99.90
31661;DHT22;18267;52.234;7.444;2023-06-10T03:27:39;18.40;99.90
31661;DHT22;18267;52.234;7.444;2023-06-10T03:30:05;18.50;99.90
31661;DHT22;18267;52.234;7.444;2023-06-10T03:32:31;18.50;99.90
31661;DHT22;18267;52.234;7.444;2023-06-10T03:34:57;18.50;99.90
31661;DHT22;18267;52.234;7.444;2023-06-10T03:37:24;18.50;99.90
31661;DHT22;18267;52.234;7.444;2023-06-10T03:39:49;18.50;99.90
31661;DHT22;18267;52.234;7.444;2023-06-10T03:42:15;18.50;99.90
31661;DHT22;18267;52.234;7.444;2023-06-10T03:44:41;18.50;99.90
31661;DHT22;18267;52.234;7.444;2023-06-10T03:47:06;18.40;99.90
31661;DHT22;18267;52.234;7.444;2023-06-10T03:49:32;18.40;99.90
31661;DHT22;18267;52.234;7.444;2023-06-10T03:51:58;18.40;99.90
31661;DHT22;18267;52.234;7.444;2023-06-10T03:54:24;18.30;99.90
31661;DHT22;18267;52.234;7.444;2023-06-10T03:56:50;18.30;99.90
31661;DHT22;18267;52.234;7.444;2023-06-10T03:59:16;18.30;99.90
31661;DHT22;18267;52.234;7.444;2023-06-10T04:01:42;18.40;99.90
31661;DHT22;18267;52.234;7.444;2023-06-10T04:04:09;18.50;99.90
31661;DHT22;18267;52.234;7.444;2023-06-10T04:06:35;18.50;99.90
31661;DHT22;18267;52.234;7.444;2023-06-10T04:09:02;18.40;99.90
31661;DHT22;18267;52.234;7.444;2023-06-10T04:11:28;18.50;99.90
31661;DHT22;18267;52.234;7.444;2023-06-10T04:13:54;18.60;99.90
31661;DHT22;18267;52.234;7.444;2023-06-10T04:16:20;18.70;99.90
31661;DHT22;18267;52.234;7.444;2023-06-10T04:18:46;18.70;99.90
31661;DHT22;18267;52.234;7.444;2023-06-10T04:21:12;18.70;99.90
31661;DHT22;18267;52.234;7.444;2023-06-10T04:23:38;18.70;99.90
31661;DHT22;18267;52.234;7.444;2023-06-10T04:26:04;18.60;99.90
31661;DHT22;18267;52.234;7.444;2023-06-10T04:28:31;18.70;99.90
31661;DHT22;18267;52.234;7.444;2023-06-10T04:30:56;18.90;99.90
31661;DHT22;18267;52.234;7.444;2023-06-10T04:33:23;18.80;99.90
31661;DHT22;18267;52.234;7.444;2023-06-10T04:35:48;18.80;99.90
31661;DHT22;18267;52.234;7.444;2023-06-10T04:38:14;18.80;99.90
31661;DHT22;18267;52.234;7.444;2023-06-10T04:40:39;19.10;99.90
31661;DHT22;18267;52.234;7.444;2023-06-10T04:43:05;19.00;99.90
31661;DHT22;18267;52.234;7.444;2023-06-10T04:45:31;19.10;99.90
31661;DHT22;18267;52.234;7.444;2023-06-10T04:47:56;19.10;99.90
31661;DHT22;18267;52.234;7.444;2023-06-10T04:50:23;19.10;99.90
31661;DHT22;18267;52.234;7.444;2023-06-10T04:52:49;19.20;99.90
31661;DHT22;18267;52.234;7.444;2023-06-10T04:55:15;19.10;99.90
31661;DHT22;18267;52.234;7.444;2023-06-10T04:57:41;19.20;99.90
31661;DHT22;18267;52.234;7.444;2023-06-10T05:00:07;19.20;99.90
31661;DHT22;18267;52.234;7.444;2023-06-10T05:02:33;19.30;99.90
31661;DHT22;18267;52.234;7.444;2023-06-10T05:04:59;19.40;99.90
31661;DHT22;18267;52.234;7.444;2023-06-10T05:07:25;19.20;99.90
31661;DHT22;18267;52.234;7.444;2023-06-10T05:09:50;19.30;99.90
31661;DHT22;18267;52.234;7.444;2023-06-10T05:12:16;19.40;99.90
31661;DHT22;18267;52.234;7.444;2023-06-10T05:14:41;19.40;99.90
31661;DHT22;18267;52.234;7.444;2023-06-10T05:17:07;19.50;99.90
31661;DHT22;18267;52.234;7.444;2023-06-10T05:19:32;19.60;99.90
31661;DHT22;18267;52.234;7.444;2023-06-10T05:21:58;19.50;99.90
31661;DHT22;18267;52.234;7.444;2023-06-10T05:24:23;19.60;99.90
31661;DHT22;18267;52.234;7.444;2023-06-10T05:26:49;19.70;99.90
31661;DHT22;18267;52.234;7.444;2023-06-10T05:29:15;19.70;99.90
31661;DHT22;18267;52.234;7.444;2023-06-10T05:31:41;19.80;99.90
31661;DHT22;18267;52.234;7.444;2023-06-10T05:34:07;19.50;99.90
31661;DHT22;18267;52.234;7.444;2023-06-10T05:36:32;19.70;99.90
31661;DHT22;18267;52.234;7.444;2023-06-10T05:38:58;19.50;99.90
31661;DHT22;18267;52.234;7.444;2023-06-10T05:41:23;19.50;99.90
31661;DHT22;18267;52.234;7.444;2023-06-10T05:43:49;19.40;99.90
31661;DHT22;18267;52.234;7.444;2023-06-10T05:46:14;19.50;99.90
31661;DHT22;18267;52.234;7.444;2023-06-10T05:48:40;19.60;99.90
31661;DHT22;18267;52.234;7.444;2023-06-10T05:51:06;19.60;99.90
31661;DHT22;18267;52.234;7.444;2023-06-10T05:53:32;19.60;99.90
31661;DHT22;18267;52.234;7.444;2023-06-10T05:55:57;19.70;99.90
31661;DHT22;18267;52.234;7.444;2023-06-10T05:58:24;19.50;99.90
31661;DHT22;18267;52.234;7.444;2023-06-10T06:00:50;19.60;99.90
31661;DHT22;18267;52.234;7.444;2023-06-10T06:03:15;19.60;99.90
31661;DHT22;18267;52.234;7.444;2023-06-10T06:05:41;19.60;99.90
31661;DHT22;18267;52.234;7.444;2023-06-10T06:08:10;19.60;99.90
31661;DHT22;18267;52.234;7.444;2023-06-10T06:10:35;19.70;99.90
31661;DHT22;18267;52.234;7.444;2023-06-10T06:13:01;19.80;99.90
31661;DHT22;18267;52.234;7.444;2023-06-10T06:15:27;19.80;99.90
31661;DHT22;18267;52.234;7.444;2023-06-10T06:17:53;19.90;99.90
31661;DHT22;18267;52.234;7.444;2023-06-10T06:20:22;19.90;99.90
31661;DHT22;18267;52.234;7.444;2023-06-10T06:22:48;20.10;99.90
31661;DHT22;18267;52.234;7.444;2023-06-10T06:25:13;20.00;99.90
31661;DHT22;18267;52.234;7.444;2023-06-10T06:27:39;20.00;99.90
31661;DHT22;18267;52.234;7.444;2023-06-10T06:30:05;20.00;99.90
31661;DHT22;18267;52.234;7.444;2023-06-10T06:32:31;20.10;99.90
31661;DHT22;18267;52.234;7.444;2023-06-10T06:34:56;19.90;99.90
31661;DHT22;18267;52.234;7.444;2023-06-10T06:37:24;20.00;99.90
31661;DHT22;18267;52.234;7.444;2023-06-10T06:39:51;19.90;99.90
31661;DHT22;18267;52.234;7.444;2023-06-10T06:42:17;19.90;99.90
31661;DHT22;18267;52.234;7.444;2023-06-10T06:44:42;20.00;99.80
31661;DHT22;18267;52.234;7.444;2023-06-10T06:47:08;20.20;99.90
31661;DHT22;18267;52.234;7.444;2023-06-10T06:49:34;20.30;99.80
31661;DHT22;18267;52.234;7.444;2023-06-10T06:51:59;20.30;99.60
31661;DHT22;18267;52.234;7.444;2023-06-10T06:54:25;20.40;99.60
31661;DHT22;18267;52.234;7.444;2023-06-10T06:56:50;20.40;99.70
31661;DHT22;18267;52.234;7.444;2023-06-10T06:59:16;20.50;99.40
31661;DHT22;18267;52.234;7.444;2023-06-10T07:01:45;20.50;99.60
31661;DHT22;18267;52.234;7.444;2023-06-10T07:04:10;20.30;99.30
31661;DHT22;18267;52.234;7.444;2023-06-10T07:06:36;20.30;99.40
31661;DHT22;18267;52.234;7.444;2023-06-10T07:09:03;20.30;99.50
31661;DHT22;18267;52.234;7.444;2023-06-10T07:11:30;20.30;99.70
31661;DHT22;18267;52.234;7.444;2023-06-10T07:13:56;20.30;99.70
31661;DHT22;18267;52.234;7.444;2023-06-10T07:16:21;20.30;99.60
31661;DHT22;18267;52.234;7.444;2023-06-10T07:18:47;20.40;99.90
31661;DHT22;18267;52.234;7.444;2023-06-10T07:21:13;20.50;99.20
31661;DHT22;18267;52.234;7.444;2023-06-10T07:23:41;20.40;99.10
31661;DHT22;18267;52.234;7.444;2023-06-10T07:26:07;20.50;99.30
31661;DHT22;18267;52.234;7.444;2023-06-10T07:28:33;20.60;99.00
31661;DHT22;18267;52.234;7.444;2023-06-10T07:30:58;20.70;98.80
31661;DHT22;18267;52.234;7.444;2023-06-10T07:33:24;20.80;99.00
31661;DHT22;18267;52.234;7.444;2023-06-10T07:35:49;20.70;99.30
31661;DHT22;18267;52.234;7.444;2023-06-10T07:38:16;20.80;99.00
31661;DHT22;18267;52.234;7.444;2023-06-10T07:40:42;20.90;98.60
31661;DHT22;18267;52.234;7.444;2023-06-10T07:43:08;20.90;98.80
31661;DHT22;18267;52.234;7.444;2023-06-10T07:45:33;20.90;99.00
31661;DHT22;18267;52.234;7.444;2023-06-10T07:47:58;20.90;98.30
31661;DHT22;18267;52.234;7.444;2023-06-10T07:50:24;21.10;98.20
31661;DHT22;18267;52.234;7.444;2023-06-10T07:52:50;21.10;98.30
31661;DHT22;18267;52.234;7.444;2023-06-10T07:55:15;21.10;98.70
31661;DHT22;18267;52.234;7.444;2023-06-10T07:57:41;21.30;98.10
31661;DHT22;18267;52.234;7.444;2023-06-10T08:00:07;21.40;97.60
31661;DHT22;18267;52.234;7.444;2023-06-10T08:02:33;21.40;97.90
31661;DHT22;18267;52.234;7.444;2023-06-10T08:04:59;21.50;97.90
31661;DHT22;18267;52.234;7.444;2023-06-10T08:07:24;21.50;97.30
31661;DHT22;18267;52.234;7.444;2023-06-10T08:09:50;21.60;96.40
31661;DHT22;18267;52.234;7.444;2023-06-10T08:12:16;21.60;96.70
31661;DHT22;18267;52.234;7.444;2023-06-10T08:14:41;21.60;96.90
31661;DHT22;18267;52.234;7.444;2023-06-10T08:17:07;21.70;97.10
31661;DHT22;18267;52.234;7.444;2023-06-10T08:19:33;21.80;97.00
31661;DHT22;18267;52.234;7.444;2023-06-10T08:21:58;21.90;97.00
31661;DHT22;18267;52.234;7.444;2023-06-10T08:24:24;21.90;96.90
31661;DHT22;18267;52.234;7.444;2023-06-10T08:26:49;22.00;96.50
31661;DHT22;18267;52.234;7.444;2023-06-10T08:29:15;22.00;96.30
31661;DHT22;18267;52.234;7.444;2023-06-10T08:31:44;22.10;96.20
31661;DHT22;18267;52.234;7.444;2023-06-10T08:34:09;22.10;96.50
31661;DHT22;18267;52.234;7.444;2023-06-10T08:36:35;22.00;97.20
31661;DHT22;18267;52.234;7.444;2023-06-10T08:39:01;22.10;96.30
31661;DHT22;18267;52.234;7.444;2023-06-10T08:41:28;22.20;96.00
31661;DHT22;18267;52.234;7.444;2023-06-10T08:44:13;22.30;96.80
31661;DHT22;18267;52.234;7.444;2023-06-10T08:46:45;22.30;96.90
31661;DHT22;18267;52.234;7.444;2023-06-10T08:49:17;22.40;97.00
31661;DHT22;18267;52.234;7.444;2023-06-10T08:51:43;22.40;96.30
31661;DHT22;18267;52.234;7.444;2023-06-10T08:54:17;22.50;96.80
31661;DHT22;18267;52.234;7.444;2023-06-10T08:56:48;22.50;96.10
31661;DHT22;18267;52.234;7.444;2023-06-10T08:59:15;22.60;96.10
31661;DHT22;18267;52.234;7.444;2023-06-10T09:01:42;22.60;96.80
31661;DHT22;18267;52.234;7.444;2023-06-10T09:04:08;22.70;96.70
31661;DHT22;18267;52.234;7.444;2023-06-10T09:06:34;22.80;96.30
31661;DHT22;18267;52.234;7.444;2023-06-10T09:09:01;22.90;96.60
31661;DHT22;18267;52.234;7.444;2023-06-10T09:11:28;22.70;96.50
31661;DHT22;18267;52.234;7.444;2023-06-10T09:13:53;22.70;96.40
31661;DHT22;18267;52.234;7.444;2023-06-10T09:16:19;22.80;96.00
31661;DHT22;18267;52.234;7.444;2023-06-10T09:18:45;22.90;96.80
31661;DHT22;18267;52.234;7.444;2023-06-10T09:21:10;23.00;95.70
31661;DHT22;18267;52.234;7.444;2023-06-10T09:23:37;23.00;94.90
31661;DHT22;18267;52.234;7.444;2023-06-10T09:26:08;23.20;95.60
31661;DHT22;18267;52.234;7.444;2023-06-10T09:28:34;23.20;94.40
31661;DHT22;18267;52.234;7.444;2023-06-10T09:31:04;23.20;95.50
31661;DHT22;18267;52.234;7.444;2023-06-10T09:33:30;23.30;95.10
31661;DHT22;18267;52.234;7.444;2023-06-10T09:35:56;23.40;94.90
31661;DHT22;18267;52.234;7.444;2023-06-10T09:38:30;23.40;94.70
31661;DHT22;18267;52.234;7.444;2023-06-10T09:40:55;23.40;94.50
31661;DHT22;18267;52.234;7.444;2023-06-10T09:43:21;23.50;94.60
31661;DHT22;18267;52.234;7.444;2023-06-10T09:45:50;23.50;95.00
31661;DHT22;18267;52.234;7.444;2023-06-10T09:48:19;23.50;94.90
31661;DHT22;18267;52.234;7.444;2023-06-10T09:50:45;23.60;94.20
31661;DHT22;18267;52.234;7.444;2023-06-10T09:53:11;23.60;93.70
31661;DHT22;18267;52.234;7.444;2023-06-10T09:55:41;23.70;93.40
31661;DHT22;18267;52.234;7.444;2023-06-10T09:58:07;23.80;94.40
31661;DHT22;18267;52.234;7.444;2023-06-10T10:00:33;23.80;93.30
31661;DHT22;18267;52.234;7.444;2023-06-10T10:02:59;23.90;92.50
31661;DHT22;18267;52.234;7.444;2023-06-10T10:05:25;24.00;91.20
31661;DHT22;18267;52.234;7.444;2023-06-10T10:07:52;24.00;91.50
31661;DHT22;18267;52.234;7.444;2023-06-10T10:10:19;24.00;91.20
31661;DHT22;18267;52.234;7.444;2023-06-10T10:12:52;24.10;91.50
31661;DHT22;18267;52.234;7.444;2023-06-10T10:15:19;24.10;91.20
31661;DHT22;18267;52.234;7.444;2023-06-10T10:17:52;24.10;90.10
31661;DHT22;18267;52.234;7.444;2023-06-10T10:20:22;24.20;90.60
31661;DHT22;18267;52.234;7.444;2023-06-10T10:22:50;24.10;90.80
31661;DHT22;18267;52.234;7.444;2023-06-10T10:25:28;24.30;90.50
31661;DHT22;18267;52.234;7.444;2023-06-10T10:27:58;24.30;90.60
31661;DHT22;18267;52.234;7.444;2023-06-10T10:30:24;24.40;90.60
31661;DHT22;18267;52.234;7.444;2023-06-10T10:32:58;24.40;90.70
31661;DHT22;18267;52.234;7.444;2023-06-10T10:35:26;24.40;91.40
31661;DHT22;18267;52.234;7.444;2023-06-10T10:37:53;24.60;91.70
31661;DHT22;18267;52.234;7.444;2023-06-10T10:40:20;24.50;90.90
31661;DHT22;18267;52.234;7.444;2023-06-10T10:42:48;24.50;90.90
31661;DHT22;18267;52.234;7.444;2023-06-10T10:45:14;24.50;89.90
31661;DHT22;18267;52.234;7.444;2023-06-10T10:47:41;24.60;90.30
31661;DHT22;18267;52.234;7.444;2023-06-10T10:50:15;24.70;91.00
31661;DHT22;18267;52.234;7.444;2023-06-10T10:53:07;24.70;90.80
31661;DHT22;18267;52.234;7.444;2023-06-10T10:55:33;24.80;91.80
31661;DHT22;18267;52.234;7.444;2023-06-10T10:58:03;24.80;90.80
31661;DHT22;18267;52.234;7.444;2023-06-10T11:00:33;24.70;90.40
31661;DHT22;18267;52.234;7.444;2023-06-10T11:08:01;24.80;90.10
31661;DHT22;18267;52.234;7.444;2023-06-10T11:10:37;24.90;90.80
31661;DHT22;18267;52.234;7.444;2023-06-10T11:13:12;24.90;90.60
31661;DHT22;18267;52.234;7.444;2023-06-10T11:15:48;24.90;90.30
31661;DHT22;18267;52.234;7.444;2023-06-10T11:18:23;24.90;90.00
31661;DHT22;18267;52.234;7.444;2023-06-10T11:26:18;25.10;89.70
31661;DHT22;18267;52.234;7.444;2023-06-10T11:31:21;25.20;89.30
31661;DHT22;18267;52.234;7.444;2023-06-10T11:33:47;25.20;89.50
31661;DHT22;18267;52.234;7.444;2023-06-10T11:36:14;25.30;90.00
31661;DHT22;18267;52.234;7.444;2023-06-10T11:38:40;25.30;86.40
31661;DHT22;18267;52.234;7.444;2023-06-10T11:41:07;25.30;87.20
31661;DHT22;18267;52.234;7.444;2023-06-10T11:43:33;25.20;88.40
31661;DHT22;18267;52.234;7.444;2023-06-10T11:45:59;25.30;87.10
31661;DHT22;18267;52.234;7.444;2023-06-10T11:48:25;25.20;87.30
31661;DHT22;18267;52.234;7.444;2023-06-10T11:50:53;25.30;88.40
31661;DHT22;18267;52.234;7.444;2023-06-10T11:53:19;25.30;87.20
31661;DHT22;18267;52.234;7.444;2023-06-10T11:55:46;25.40;87.00
31661;DHT22;18267;52.234;7.444;2023-06-10T11:58:20;25.40;86.30
31661;DHT22;18267;52.234;7.444;2023-06-10T12:00:47;25.40;85.60
31661;DHT22;18267;52.234;7.444;2023-06-10T12:03:13;25.50;83.60
31661;DHT22;18267;52.234;7.444;2023-06-10T12:05:39;25.50;85.70
31661;DHT22;18267;52.234;7.444;2023-06-10T12:08:11;25.60;84.80
31661;DHT22;18267;52.234;7.444;2023-06-10T12:10:41;25.60;83.50
31661;DHT22;18267;52.234;7.444;2023-06-10T12:13:10;25.60;84.20
31661;DHT22;18267;52.234;7.444;2023-06-10T12:15:36;25.60;82.00
31661;DHT22;18267;52.234;7.444;2023-06-10T12:18:02;25.50;83.90
31661;DHT22;18267;52.234;7.444;2023-06-10T12:20:30;25.60;83.00
31661;DHT22;18267;52.234;7.444;2023-06-10T12:22:58;25.60;83.70
31661;DHT22;18267;52.234;7.444;2023-06-10T12:25:28;25.70;81.00
31661;DHT22;18267;52.234;7.444;2023-06-10T12:27:55;25.80;81.80
31661;DHT22;18267;52.234;7.444;2023-06-10T12:30:23;25.80;81.60
31661;DHT22;18267;52.234;7.444;2023-06-10T12:32:50;25.80;81.20
31661;DHT22;18267;52.234;7.444;2023-06-10T12:35:21;25.80;80.20
31661;DHT22;18267;52.234;7.444;2023-06-10T12:40:29;25.80;80.00
31661;DHT22;18267;52.234;7.444;2023-06-10T12:42:55;25.80;79.90
31661;DHT22;18267;52.234;7.444;2023-06-10T12:45:31;25.80;79.50
31661;DHT22;18267;52.234;7.444;2023-06-10T12:50:31;25.90;78.50
31661;DHT22;18267;52.234;7.444;2023-06-10T12:52:56;26.00;78.80
31661;DHT22;18267;52.234;7.444;2023-06-10T12:55:22;25.90;79.50
31661;DHT22;18267;52.234;7.444;2023-06-10T12:57:49;26.00;78.20
31661;DHT22;18267;52.234;7.444;2023-06-10T13:00:16;26.00;78.60
31661;DHT22;18267;52.234;7.444;2023-06-10T13:02:41;26.00;77.30
31661;DHT22;18267;52.234;7.444;2023-06-10T13:05:07;26.00;75.80
31661;DHT22;18267;52.234;7.444;2023-06-10T13:07:33;26.00;76.30
31661;DHT22;18267;52.234;7.444;2023-06-10T13:09:59;26.00;74.30
31661;DHT22;18267;52.234;7.444;2023-06-10T13:12:25;26.10;75.20
31661;DHT22;18267;52.234;7.444;2023-06-10T13:14:54;26.10;76.40
31661;DHT22;18267;52.234;7.444;2023-06-10T13:17:20;26.10;77.40
31661;DHT22;18267;52.234;7.444;2023-06-10T13:19:46;26.10;79.10
31661;DHT22;18267;52.234;7.444;2023-06-10T13:22:11;26.20;79.10
31661;DHT22;18267;52.234;7.444;2023-06-10T13:24:39;26.20;78.80
31661;DHT22;18267;52.234;7.444;2023-06-10T13:27:06;26.20;80.80
31661;DHT22;18267;52.234;7.444;2023-06-10T13:29:32;26.30;80.30
31661;DHT22;18267;52.234;7.444;2023-06-10T13:31:57;26.30;77.90
31661;DHT22;18267;52.234;7.444;2023-06-10T13:34:23;26.30;79.00
31661;DHT22;18267;52.234;7.444;2023-06-10T13:36:49;26.30;77.40
31661;DHT22;18267;52.234;7.444;2023-06-10T13:39:14;26.30;78.20
31661;DHT22;18267;52.234;7.444;2023-06-10T13:41:41;26.40;77.30
31661;DHT22;18267;52.234;7.444;2023-06-10T13:44:07;26.30;77.40
31661;DHT22;18267;52.234;7.444;2023-06-10T13:46:32;26.40;77.80
31661;DHT22;18267;52.234;7.444;2023-06-10T13:48:58;26.40;77.50
31661;DHT22;18267;52.234;7.444;2023-06-10T13:51:23;26.30;78.60
31661;DHT22;18267;52.234;7.444;2023-06-10T13:53:49;26.30;78.90
31661;DHT22;18267;52.234;7.444;2023-06-10T13:56:17;26.30;78.60
31661;DHT22;18267;52.234;7.444;2023-06-10T13:58:43;26.40;77.80
31661;DHT22;18267;52.234;7.444;2023-06-10T14:01:08;26.50;77.70
31661;DHT22;18267;52.234;7.444;2023-06-10T14:03:34;26.40;77.70
31661;DHT22;18267;52.234;7.444;2023-06-10T14:05:59;26.40;78.00
31661;DHT22;18267;52.234;7.444;2023-06-10T14:08:25;26.50;77.30
31661;DHT22;18267;52.234;7.444;2023-06-10T14:10:51;26.50;78.30
31661;DHT22;18267;52.234;7.444;2023-06-10T14:13:17;26.50;77.80
31661;DHT22;18267;52.234;7.444;2023-06-10T14:15:43;26.60;77.50
31661;DHT22;18267;52.234;7.444;2023-06-10T14:18:09;26.50;77.50
31661;DHT22;18267;52.234;7.444;2023-06-10T14:20:35;26.60;77.90
31661;DHT22;18267;52.234;7.444;2023-06-10T14:23:00;26.60;77.00
31661;DHT22;18267;52.234;7.444;2023-06-10T14:25:26;26.60;76.80
31661;DHT22;18267;52.234;7.444;2023-06-10T14:27:52;26.60;77.60
31661;DHT22;18267;52.234;7.444;2023-06-10T14:30:17;26.50;77.80
31661;DHT22;18267;52.234;7.444;2023-06-10T14:32:43;26.70;76.80
31661;DHT22;18267;52.234;7.444;2023-06-10T14:35:09;26.70;77.70
31661;DHT22;18267;52.234;7.444;2023-06-10T14:37:35;26.80;77.60
31661;DHT22;18267;52.234;7.444;2023-06-10T14:40:01;26.80;76.70
31661;DHT22;18267;52.234;7.444;2023-06-10T14:42:27;26.80;76.60
31661;DHT22;18267;52.234;7.444;2023-06-10T14:44:52;26.70;77.50
31661;DHT22;18267;52.234;7.444;2023-06-10T14:47:18;26.80;77.10
31661;DHT22;18267;52.234;7.444;2023-06-10T14:49:43;26.70;77.70
31661;DHT22;18267;52.234;7.444;2023-06-10T14:52:09;26.80;77.10
31661;DHT22;18267;52.234;7.444;2023-06-10T14:54:35;26.70;77.40
31661;DHT22;18267;52.234;7.444;2023-06-10T14:57:01;26.70;77.20
31661;DHT22;18267;52.234;7.444;2023-06-10T14:59:26;26.60;77.90
31661;DHT22;18267;52.234;7.444;2023-06-10T15:01:52;26.70;77.80
31661;DHT22;18267;52.234;7.444;2023-06-10T15:04:17;26.70;77.50
31661;DHT22;18267;52.234;7.444;2023-06-10T15:06:43;26.80;77.20
31661;DHT22;18267;52.234;7.444;2023-06-10T15:09:09;26.80;76.90
31661;DHT22;18267;52.234;7.444;2023-06-10T15:11:34;26.80;78.10
31661;DHT22;18267;52.234;7.444;2023-06-10T15:14:00;26.80;76.90
31661;DHT22;18267;52.234;7.444;2023-06-10T15:16:25;26.90;76.60
31661;DHT22;18267;52.234;7.444;2023-06-10T15:18:51;26.80;78.10
31661;DHT22;18267;52.234;7.444;2023-06-10T15:21:16;26.90;77.90
31661;DHT22;18267;52.234;7.444;2023-06-10T15:23:42;26.90;77.40
31661;DHT22;18267;52.234;7.444;2023-06-10T15:26:08;26.90;76.00
31661;DHT22;18267;52.234;7.444;2023-06-10T15:28:33;27.00;77.20
31661;DHT22;18267;52.234;7.444;2023-06-10T15:30:59;27.00;75.30
31661;DHT22;18267;52.234;7.444;2023-06-10T15:33:24;26.90;76.00
31661;DHT22;18267;52.234;7.444;2023-06-10T15:35:50;26.90;76.20
31661;DHT22;18267;52.234;7.444;2023-06-10T15:38:18;26.90;76.60
31661;DHT22;18267;52.234;7.444;2023-06-10T15:40:43;26.80;76.90
31661;DHT22;18267;52.234;7.444;2023-06-10T15:43:09;26.90;76.30
31661;DHT22;18267;52.234;7.444;2023-06-10T15:45:34;27.00;73.90
31661;DHT22;18267;52.234;7.444;2023-06-10T15:48:00;26.90;75.30